Time;durP1;ratioP1;P1;durP2;ratioP2;P2;SDS_P1;SDS_P2;PMS_P1;PMS_P2;Temp;Humidity;BMP_temperature;BMP_pressure;BME280_temperature;BME280_humidity;BME280_pressure;Samples;Min_cycle;Max_cycle;Signal;HPM_P1;HPM_P2
2021/06/20 00:00:55;;;;;;;12.82;6.95;;;16.80;99.90;;;;;;5009658;28;20113;-71
2021/06/20 00:03:21;;;;;;;17.80;6.78;;;16.80;99.90;;;;;;5010276;28;20467;-71
2021/06/20 00:05:55;;;;;;;12.27;5.90;;;16.80;99.90;;;;;;5010376;28;20100;-71
2021/06/20 00:08:21;;;;;;;10.68;5.68;;;16.70;99.90;;;;;;5009063;28;20434;-71
2021/06/20 00:10:49;;;;;;;17.55;6.43;;;16.70;99.90;;;;;;5008934;28;20026;-71
2021/06/20 00:13:16;;;;;;;12.68;5.63;;;16.70;99.90;;;;;;5006581;28;20068;-71
2021/06/20 00:15:43;;;;;;;11.95;6.40;;;16.70;99.90;;;;;;5006812;28;20517;-71
2021/06/20 00:18:09;;;;;;;14.02;6.55;;;16.70;99.90;;;;;;5008536;28;20479;-71
2021/06/20 00:20:38;;;;;;;11.95;6.03;;;16.70;99.90;;;;;;5006439;28;20037;-71
2021/06/20 00:23:04;;;;;;;13.88;6.85;;;16.80;99.90;;;;;;5007872;28;20088;-71
2021/06/20 00:25:30;;;;;;;12.98;6.25;;;16.70;99.90;;;;;;5006671;28;20026;-71
2021/06/20 00:27:56;;;;;;;15.27;7.07;;;16.80;99.90;;;;;;5004074;28;20037;-71
2021/06/20 00:30:25;;;;;;;12.32;6.53;;;16.80;99.90;;;;;;5006422;28;20399;-71
2021/06/20 00:32:50;;;;;;;14.55;7.03;;;16.80;99.90;;;;;;5006228;28;20121;-71
2021/06/20 00:35:17;;;;;;;15.65;6.93;;;16.80;99.90;;;;;;5008089;28;20132;-71
2021/06/20 00:37:43;;;;;;;16.27;7.03;;;16.80;99.90;;;;;;5007714;28;20341;-71
2021/06/20 00:40:09;;;;;;;16.13;6.45;;;16.80;99.90;;;;;;5005416;28;20550;-71
2021/06/20 00:42:35;;;;;;;13.15;6.35;;;16.90;99.90;;;;;;5007349;28;20202;-71
2021/06/20 00:45:03;;;;;;;13.30;6.80;;;16.80;99.90;;;;;;5007104;28;20095;-71
2021/06/20 00:47:28;;;;;;;11.48;6.32;;;16.90;99.90;;;;;;5002256;28;20281;-71
2021/06/20 00:49:54;;;;;;;13.65;7.50;;;16.90;99.90;;;;;;5006420;28;20038;-71
2021/06/20 00:52:20;;;;;;;11.13;6.18;;;16.90;99.90;;;;;;5006914;28;20046;-71
2021/06/20 00:54:49;;;;;;;11.98;6.57;;;16.90;99.90;;;;;;5006553;28;20474;-71
2021/06/20 00:57:21;;;;;;;11.18;6.45;;;16.90;99.90;;;;;;5005939;28;20057;-71
2021/06/20 00:59:50;;;;;;;11.77;6.72;;;16.90;99.90;;;;;;5004477;28;20073;-71
2021/06/20 01:02:18;;;;;;;13.93;7.22;;;17.00;99.90;;;;;;5005982;28;20033;-71
2021/06/20 01:04:46;;;;;;;12.77;6.90;;;17.00;99.90;;;;;;5005052;28;20038;-71
2021/06/20 01:07:20;;;;;;;12.73;6.85;;;17.00;99.90;;;;;;5002715;28;20578;-71
2021/06/20 01:09:46;;;;;;;13.70;6.63;;;17.00;99.90;;;;;;5007065;28;20091;-71
2021/06/20 01:12:13;;;;;;;15.73;6.65;;;17.00;99.90;;;;;;5004486;28;20025;-71
2021/06/20 01:14:39;;;;;;;10.63;6.20;;;17.10;99.90;;;;;;5006272;28;20070;-71
2021/06/20 01:17:05;;;;;;;12.57;6.60;;;17.10;99.90;;;;;;5005591;28;20383;-71
2021/06/20 01:19:32;;;;;;;13.70;7.63;;;17.10;99.90;;;;;;5005342;28;20099;-71
2021/06/20 01:22:12;;;;;;;11.68;7.07;;;17.10;99.90;;;;;;5006303;28;20075;-71
2021/06/20 01:24:38;;;;;;;14.05;6.82;;;17.10;99.90;;;;;;5003421;28;20483;-71
2021/06/20 01:27:03;;;;;;;14.55;6.90;;;17.10;99.90;;;;;;5005515;28;20080;-71
2021/06/20 01:29:33;;;;;;;13.02;6.28;;;17.20;99.90;;;;;;5007275;28;20310;-71
2021/06/20 01:31:59;;;;;;;14.90;6.70;;;17.10;99.90;;;;;;5006915;28;20045;-71
2021/06/20 01:34:24;;;;;;;12.52;6.70;;;17.20;99.90;;;;;;5001112;28;20418;-71
2021/06/20 01:36:50;;;;;;;19.38;7.63;;;17.20;99.90;;;;;;5005662;28;20478;-71
2021/06/20 01:39:15;;;;;;;21.40;8.35;;;17.10;99.90;;;;;;5006186;28;20034;-71
2021/06/20 01:41:41;;;;;;;16.17;8.20;;;17.10;99.90;;;;;;5004486;28;20439;-71
2021/06/20 01:44:07;;;;;;;18.35;7.75;;;17.10;99.90;;;;;;5006542;28;20025;-71
2021/06/20 01:46:32;;;;;;;16.70;8.15;;;17.10;99.90;;;;;;5003998;28;20060;-71
2021/06/20 01:48:58;;;;;;;15.50;7.50;;;17.10;99.90;;;;;;5005572;28;20052;-71
2021/06/20 01:51:23;;;;;;;15.85;7.55;;;17.10;99.90;;;;;;5003875;28;20391;-72
2021/06/20 01:53:49;;;;;;;20.15;7.90;;;17.10;99.90;;;;;;5003755;28;20034;-71
2021/06/20 01:56:15;;;;;;;15.77;8.20;;;17.10;99.90;;;;;;5005924;28;20030;-71
2021/06/20 01:58:40;;;;;;;18.15;8.55;;;17.10;99.90;;;;;;5003834;28;20038;-71
2021/06/20 02:01:06;;;;;;;14.80;8.00;;;17.10;99.90;;;;;;5005434;28;20037;-71
2021/06/20 02:03:31;;;;;;;18.50;8.63;;;17.10;99.90;;;;;;5007135;28;20030;-71
2021/06/20 02:06:00;;;;;;;20.15;8.45;;;17.10;99.90;;;;;;5005482;28;20040;-71
2021/06/20 02:08:27;;;;;;;17.52;8.05;;;17.20;99.90;;;;;;5003377;28;20537;-71
2021/06/20 02:10:54;;;;;;;18.10;8.75;;;17.20;99.90;;;;;;5001207;28;20034;-71
2021/06/20 02:13:23;;;;;;;18.30;8.07;;;17.20;99.90;;;;;;5006693;28;20057;-71
2021/06/20 02:15:52;;;;;;;13.15;5.95;;;17.20;99.90;;;;;;5005811;28;20026;-71
2021/06/20 02:18:18;;;;;;;9.00;4.68;;;17.10;99.90;;;;;;5005744;28;20037;-71
2021/06/20 02:20:43;;;;;;;6.88;3.60;;;17.10;99.90;;;;;;5002754;28;20502;-71
2021/06/20 02:23:09;;;;;;;8.18;3.80;;;17.00;99.90;;;;;;5004746;28;20092;-71
2021/06/20 02:25:36;;;;;;;10.38;3.55;;;16.90;99.90;;;;;;5006331;28;20029;-71
2021/06/20 02:28:02;;;;;;;4.88;2.70;;;16.80;99.90;;;;;;5002143;28;20041;-71
2021/06/20 02:30:28;;;;;;;4.38;1.88;;;16.70;99.90;;;;;;5006367;28;20038;-71
2021/06/20 02:32:54;;;;;;;2.40;1.45;;;16.60;99.90;;;;;;5005363;28;20048;-71
2021/06/20 02:35:21;;;;;;;2.53;1.30;;;16.40;99.90;;;;;;5006648;28;20034;-71
2021/06/20 02:37:49;;;;;;;2.28;1.25;;;16.30;99.90;;;;;;5005552;28;20483;-71
2021/06/20 02:40:15;;;;;;;1.80;1.25;;;16.30;99.90;;;;;;5006114;28;20458;-71
2021/06/20 02:42:42;;;;;;;1.75;0.98;;;16.20;99.90;;;;;;5006510;28;20022;-71
2021/06/20 02:45:11;;;;;;;1.95;1.00;;;16.20;99.90;;;;;;5005007;28;20029;-71
2021/06/20 02:47:37;;;;;;;1.92;0.70;;;16.10;99.90;;;;;;5007048;28;20544;-71
2021/06/20 02:50:05;;;;;;;1.45;0.82;;;16.10;99.90;;;;;;5006374;28;20033;-71
2021/06/20 02:52:30;;;;;;;1.40;0.80;;;16.00;99.90;;;;;;5006081;28;20038;-71
2021/06/20 02:54:59;;;;;;;1.15;0.60;;;16.00;99.90;;;;;;5004894;28;20037;-71
2021/06/20 02:57:26;;;;;;;2.30;1.17;;;15.90;99.90;;;;;;5005066;28;20442;-71
2021/06/20 02:59:53;;;;;;;0.77;0.40;;;15.90;99.90;;;;;;5006847;28;20133;-71
2021/06/20 03:02:20;;;;;;;1.25;0.60;;;15.90;99.90;;;;;;5005917;28;20053;-71
2021/06/20 03:04:46;;;;;;;0.80;0.50;;;15.90;99.90;;;;;;5010621;28;20088;-71
2021/06/20 03:07:12;;;;;;;0.55;0.30;;;15.90;99.90;;;;;;5010017;28;20137;-71
2021/06/20 03:09:38;;;;;;;0.45;0.32;;;15.90;99.90;;;;;;5006848;28;20026;-71
2021/06/20 03:12:08;;;;;;;1.20;0.60;;;15.90;99.90;;;;;;5009424;28;20502;-71
2021/06/20 03:14:35;;;;;;;1.47;0.60;;;15.90;99.90;;;;;;5010485;28;20026;-71
2021/06/20 03:17:02;;;;;;;0.70;0.30;;;15.90;99.90;;;;;;5010046;28;20030;-71
2021/06/20 03:19:28;;;;;;;1.48;0.30;;;15.90;99.90;;;;;;5008674;28;20573;-71
2021/06/20 03:21:59;;;;;;;1.13;0.70;;;16.00;99.90;;;;;;5009827;28;20034;-71
2021/06/20 03:24:29;;;;;;;0.38;0.20;;;16.00;99.90;;;;;;5007233;28;20092;-71
2021/06/20 03:26:56;;;;;;;0.60;0.25;;;16.00;99.90;;;;;;5007835;28;20030;-71
2021/06/20 03:29:21;;;;;;;2.40;0.35;;;16.10;99.90;;;;;;5007439;28;20141;-71
2021/06/20 03:31:48;;;;;;;0.20;0.13;;;16.10;99.90;;;;;;5008535;28;20114;-71
2021/06/20 03:34:13;;;;;;;0.77;0.38;;;16.10;99.90;;;;;;5008395;28;20127;-71
2021/06/20 03:36:39;;;;;;;0.40;0.30;;;16.10;99.90;;;;;;5007534;28;20479;-71
2021/06/20 03:39:05;;;;;;;0.65;0.20;;;16.20;99.90;;;;;;5008678;28;20034;-71
2021/06/20 03:41:31;;;;;;;0.43;0.20;;;16.20;99.90;;;;;;5008292;28;20038;-71
2021/06/20 03:43:56;;;;;;;0.63;0.20;;;16.20;99.90;;;;;;5010245;28;20034;-71
2021/06/20 03:46:22;;;;;;;0.52;0.30;;;16.20;99.90;;;;;;5008773;28;20042;-71
2021/06/20 03:48:48;;;;;;;1.98;0.28;;;16.20;99.90;;;;;;5008998;28;20461;-71
2021/06/20 03:51:14;;;;;;;1.33;0.40;;;16.30;99.90;;;;;;5005001;28;20040;-71
2021/06/20 03:53:40;;;;;;;0.90;0.30;;;16.30;99.90;;;;;;5009239;28;20034;-71
2021/06/20 03:56:05;;;;;;;0.60;0.40;;;16.30;99.90;;;;;;5008711;28;20034;-71
2021/06/20 03:58:31;;;;;;;0.82;0.40;;;16.30;99.90;;;;;;5006889;28;20108;-71
2021/06/20 04:00:57;;;;;;;0.73;0.38;;;16.40;99.90;;;;;;5009282;28;20040;-71
2021/06/20 04:03:22;;;;;;;0.70;0.50;;;16.40;99.90;;;;;;5006800;28;20487;-71
2021/06/20 04:05:48;;;;;;;0.55;0.30;;;16.40;99.90;;;;;;5009450;28;20442;-71
2021/06/20 04:08:13;;;;;;;0.63;0.30;;;16.40;99.90;;;;;;5004641;28;20394;-71
2021/06/20 04:10:39;;;;;;;1.35;0.35;;;16.40;99.90;;;;;;5007038;28;20120;-71
2021/06/20 04:13:05;;;;;;;0.50;0.30;;;16.40;99.90;;;;;;5008253;28;20125;-71
2021/06/20 04:15:30;;;;;;;0.85;0.45;;;16.40;99.90;;;;;;5007423;28;20092;-71
2021/06/20 04:17:56;;;;;;;0.65;0.30;;;16.40;99.90;;;;;;5007628;28;20822;-71
2021/06/20 04:20:22;;;;;;;0.75;0.30;;;16.40;99.90;;;;;;5006570;28;20041;-70
2021/06/20 04:22:48;;;;;;;0.60;0.10;;;16.40;99.90;;;;;;5009053;28;20184;-71
2021/06/20 04:25:15;;;;;;;1.58;0.45;;;16.50;99.90;;;;;;5008869;28;20042;-71
2021/06/20 04:27:42;;;;;;;0.35;0.10;;;16.40;99.90;;;;;;5008193;28;20121;-71
2021/06/20 04:30:13;;;;;;;1.45;0.22;;;16.40;99.90;;;;;;5008651;28;20064;-71
2021/06/20 04:32:42;;;;;;;0.82;0.30;;;16.40;99.90;;;;;;5005790;28;20081;-72
2021/06/20 04:35:10;;;;;;;1.27;0.32;;;16.50;99.90;;;;;;5006811;28;20033;-71
2021/06/20 04:37:35;;;;;;;0.70;0.20;;;16.60;99.90;;;;;;5006235;28;20041;-71
2021/06/20 04:40:04;;;;;;;1.08;0.17;;;16.80;99.90;;;;;;5007836;28;20514;-71
2021/06/20 04:42:34;;;;;;;0.30;0.10;;;16.80;99.90;;;;;;5004344;28;20459;-71
2021/06/20 04:45:01;;;;;;;0.17;0.10;;;16.80;99.90;;;;;;5007581;28;20042;-71
2021/06/20 04:47:27;;;;;;;1.75;0.10;;;16.80;99.90;;;;;;5006364;28;20042;-71
2021/06/20 04:49:53;;;;;;;0.10;0.00;;;16.80;99.90;;;;;;5005288;28;20439;-71
2021/06/20 04:52:19;;;;;;;0.57;0.10;;;16.90;99.90;;;;;;5005165;28;20042;-71
2021/06/20 04:54:52;;;;;;;1.23;0.20;;;16.90;99.90;;;;;;5006234;28;20034;-71
2021/06/20 04:57:23;;;;;;;0.10;0.00;;;17.00;99.90;;;;;;5002318;28;20498;-71
2021/06/20 04:59:50;;;;;;;0.20;0.00;;;17.00;99.90;;;;;;5003719;28;20062;-70
2021/06/20 05:02:16;;;;;;;2.45;0.13;;;16.90;99.90;;;;;;5006134;28;20046;-71
2021/06/20 05:04:42;;;;;;;0.80;0.10;;;16.90;99.90;;;;;;5004752;28;20041;-71
2021/06/20 05:07:09;;;;;;;1.95;0.10;;;17.00;99.90;;;;;;5006085;28;20419;-71
2021/06/20 05:09:35;;;;;;;0.20;0.10;;;17.00;99.90;;;;;;5006305;28;20117;-71
2021/06/20 05:12:01;;;;;;;0.10;0.03;;;17.10;99.90;;;;;;5006447;28;20551;-71
2021/06/20 05:14:27;;;;;;;0.15;0.08;;;17.20;99.90;;;;;;5006476;28;20121;-71
2021/06/20 05:16:52;;;;;;;2.25;0.10;;;17.40;99.90;;;;;;5006852;28;20382;-71
2021/06/20 05:19:18;;;;;;;0.47;0.10;;;17.50;99.90;;;;;;5005814;28;20136;-71
2021/06/20 05:21:44;;;;;;;0.45;0.10;;;17.50;99.90;;;;;;5005907;28;20141;-71
2021/06/20 05:24:09;;;;;;;0.20;0.10;;;17.50;99.90;;;;;;5006489;28;20033;-71
2021/06/20 05:26:35;;;;;;;0.10;0.00;;;17.60;99.90;;;;;;5006061;28;20513;-71
2021/06/20 05:29:01;;;;;;;0.82;0.10;;;17.50;99.90;;;;;;5005296;28;20037;-71
2021/06/20 05:31:26;;;;;;;1.05;0.30;;;17.50;99.90;;;;;;5005846;28;20125;-71
2021/06/20 05:33:52;;;;;;;0.10;0.10;;;17.50;99.90;;;;;;5006135;28;20042;-71
2021/06/20 05:36:17;;;;;;;1.33;0.20;;;17.50;99.90;;;;;;5006936;28;20049;-71
2021/06/20 05:38:44;;;;;;;0.38;0.10;;;17.50;99.90;;;;;;5005871;28;20049;-71
2021/06/20 05:41:10;;;;;;;0.22;0.05;;;17.50;99.90;;;;;;5005123;28;20029;-71
2021/06/20 05:43:36;;;;;;;1.52;0.10;;;17.40;99.90;;;;;;5007577;28;20026;-71
2021/06/20 05:46:01;;;;;;;0.82;0.20;;;17.40;99.90;;;;;;5004615;28;20041;-71
2021/06/20 05:48:27;;;;;;;0.85;0.17;;;17.50;99.90;;;;;;5006177;28;20103;-71
2021/06/20 05:50:52;;;;;;;0.77;0.20;;;17.50;99.90;;;;;;5005323;28;20056;-71
2021/06/20 05:53:18;;;;;;;0.20;0.20;;;17.50;99.90;;;;;;5004263;28;20049;-71
2021/06/20 05:55:43;;;;;;;0.40;0.20;;;17.40;99.90;;;;;;5006031;28;20042;-71
2021/06/20 05:58:09;;;;;;;0.47;0.22;;;17.50;99.90;;;;;;5000913;28;20030;-71
2021/06/20 06:00:35;;;;;;;1.98;0.30;;;17.40;99.90;;;;;;5005651;28;20034;-71
2021/06/20 06:03:01;;;;;;;0.77;0.40;;;17.40;99.90;;;;;;5003506;28;20084;-71
2021/06/20 06:05:27;;;;;;;0.95;0.30;;;17.40;99.90;;;;;;5005979;28;20037;-71
2021/06/20 06:07:53;;;;;;;0.98;0.30;;;17.40;99.90;;;;;;5004609;28;20030;-71
2021/06/20 06:10:19;;;;;;;0.82;0.45;;;17.40;99.90;;;;;;5008649;28;20139;-71
2021/06/20 06:12:45;;;;;;;1.85;0.30;;;17.40;99.90;;;;;;5010594;28;20033;-71
2021/06/20 06:15:13;;;;;;;0.22;0.20;;;17.40;99.90;;;;;;5012279;28;20034;-72
2021/06/20 06:17:38;;;;;;;0.90;0.35;;;17.40;99.90;;;;;;5006821;28;20108;-71
2021/06/20 06:20:05;;;;;;;0.63;0.30;;;17.50;99.90;;;;;;5009035;28;20038;-71
2021/06/20 06:22:31;;;;;;;3.00;0.52;;;17.40;99.90;;;;;;5009246;28;20034;-71
2021/06/20 06:24:56;;;;;;;0.95;0.57;;;17.50;99.90;;;;;;5011850;28;20133;-71
2021/06/20 06:27:22;;;;;;;0.95;0.38;;;17.50;99.90;;;;;;5011712;28;20058;-71
2021/06/20 06:29:48;;;;;;;1.27;0.30;;;17.50;99.90;;;;;;5009648;28;20053;-78
2021/06/20 06:32:14;;;;;;;0.70;0.30;;;17.70;99.90;;;;;;5005239;28;20062;-71
2021/06/20 06:34:40;;;;;;;0.75;0.40;;;17.70;99.90;;;;;;4993934;28;20110;-71
2021/06/20 06:37:06;;;;;;;2.13;0.57;;;17.80;99.90;;;;;;5002970;28;20300;-71
2021/06/20 06:39:33;;;;;;;0.50;0.30;;;17.80;99.90;;;;;;5007632;28;20072;-71
2021/06/20 06:41:59;;;;;;;0.20;0.20;;;17.90;99.90;;;;;;5007251;28;20096;-71
2021/06/20 06:44:25;;;;;;;1.58;0.43;;;18.00;99.90;;;;;;5006148;28;20038;-71
2021/06/20 06:46:51;;;;;;;0.28;0.20;;;18.00;99.90;;;;;;5007707;28;20117;-71
2021/06/20 06:49:17;;;;;;;0.52;0.30;;;18.00;99.90;;;;;;5004799;28;20136;-71
2021/06/20 06:51:42;;;;;;;1.25;0.30;;;18.00;99.90;;;;;;5006431;28;20033;-75
2021/06/20 06:54:08;;;;;;;2.85;0.43;;;17.90;99.90;;;;;;5012025;28;20038;-71
2021/06/20 06:56:34;;;;;;;0.40;0.30;;;17.90;99.90;;;;;;4999141;28;20092;-71
2021/06/20 06:59:00;;;;;;;0.50;0.28;;;18.00;99.90;;;;;;5006965;28;20033;-71
2021/06/20 07:01:25;;;;;;;0.65;0.40;;;18.00;99.90;;;;;;5002353;28;20041;-71
2021/06/20 07:03:55;;;;;;;0.95;0.47;;;18.20;99.90;;;;;;5004385;28;20095;-70
2021/06/20 07:06:20;;;;;;;1.73;0.40;;;18.30;99.90;;;;;;4999253;28;20097;-71
2021/06/20 07:08:47;;;;;;;1.88;0.15;;;18.50;99.90;;;;;;5005989;28;20033;-71
2021/06/20 07:11:15;;;;;;;1.35;0.28;;;18.60;99.90;;;;;;4989231;28;20120;-71
2021/06/20 07:13:40;;;;;;;0.30;0.20;;;18.70;99.90;;;;;;4993869;28;20037;-71
2021/06/20 07:16:06;;;;;;;1.42;0.93;;;18.90;99.90;;;;;;4994589;28;20088;-71
2021/06/20 07:18:32;;;;;;;0.88;0.20;;;19.10;99.90;;;;;;4992803;28;20097;-71
2021/06/20 07:20:59;;;;;;;0.80;0.50;;;19.20;99.90;;;;;;4996002;28;20058;-70
2021/06/20 07:23:25;;;;;;;0.70;0.50;;;19.20;99.90;;;;;;4991000;28;20262;-71
2021/06/20 07:25:50;;;;;;;0.90;0.60;;;19.30;99.90;;;;;;4992103;28;20034;-71
2021/06/20 07:28:16;;;;;;;1.08;0.70;;;19.20;99.90;;;;;;4990723;28;20031;-71
2021/06/20 07:30:42;;;;;;;1.17;0.60;;;19.10;99.90;;;;;;4994941;28;20447;-71
2021/06/20 07:33:08;;;;;;;1.20;1.10;;;19.10;99.90;;;;;;4991547;28;20430;-71
2021/06/20 07:35:34;;;;;;;2.10;0.60;;;19.00;99.90;;;;;;4994725;28;20479;-71
2021/06/20 07:38:00;;;;;;;0.70;0.60;;;19.10;99.90;;;;;;5008387;28;20029;-72
2021/06/20 07:40:26;;;;;;;1.25;0.63;;;19.40;99.90;;;;;;4991061;28;20030;-71
2021/06/20 07:42:51;;;;;;;0.85;0.70;;;19.80;99.90;;;;;;4991713;28;20452;-71
2021/06/20 07:45:18;;;;;;;1.33;0.88;;;20.20;99.90;;;;;;4990091;28;20206;-72
2021/06/20 07:47:44;;;;;;;2.10;0.40;;;20.60;99.90;;;;;;4994576;28;20034;-71
2021/06/20 07:50:11;;;;;;;1.00;0.70;;;20.90;99.90;;;;;;4999028;28;20026;-71
2021/06/20 07:52:46;;;;;;;2.13;0.70;;;21.00;99.90;;;;;;5006516;28;20108;-71
2021/06/20 07:55:12;;;;;;;1.10;0.65;;;21.40;99.90;;;;;;5004935;28;20033;-70
2021/06/20 07:57:38;;;;;;;0.60;0.50;;;21.50;99.90;;;;;;5007021;28;20112;-70
2021/06/20 08:00:06;;;;;;;0.90;0.60;;;22.10;99.90;;;;;;5006806;28;20155;-70
2021/06/20 08:02:31;;;;;;;1.40;0.63;;;23.50;99.90;;;;;;5002863;28;20026;-71
2021/06/20 08:04:57;;;;;;;0.70;0.70;;;24.40;99.90;;;;;;5008596;28;20100;-71
2021/06/20 08:07:22;;;;;;;0.70;0.70;;;25.00;99.90;;;;;;5009472;28;20145;-71
2021/06/20 08:09:48;;;;;;;3.47;0.88;;;25.40;99.90;;;;;;5007556;28;20026;-71
2021/06/20 08:12:14;;;;;;;1.00;0.85;;;25.70;99.90;;;;;;5004988;28;20045;-71
2021/06/20 08:14:40;;;;;;;1.00;0.90;;;25.30;99.90;;;;;;5009379;28;20124;-71
2021/06/20 08:17:06;;;;;;;0.90;0.80;;;25.00;99.90;;;;;;5005064;28;20555;-71
2021/06/20 08:19:32;;;;;;;0.77;0.52;;;25.00;99.90;;;;;;5004554;28;20057;-71
2021/06/20 08:21:58;;;;;;;0.82;0.70;;;25.40;99.90;;;;;;5006284;28;20037;-71
2021/06/20 08:24:26;;;;;;;0.73;0.68;;;25.40;99.90;;;;;;5009743;28;20041;-71
2021/06/20 08:26:52;;;;;;;1.48;0.68;;;25.00;99.90;;;;;;5015269;28;20065;-71
2021/06/20 08:29:17;;;;;;;1.58;1.10;;;24.50;99.90;;;;;;5007250;28;20074;-71
2021/06/20 08:31:43;;;;;;;3.72;0.93;;;24.10;99.90;;;;;;5007981;28;20096;-71
2021/06/20 08:34:09;;;;;;;1.20;1.10;;;23.60;99.90;;;;;;5003383;28;20076;-70
2021/06/20 08:36:36;;;;;;;1.40;0.88;;;24.00;99.90;;;;;;5004804;28;20037;-71
2021/06/20 08:39:04;;;;;;;0.70;0.60;;;25.30;99.90;;;;;;5006976;28;20033;-71
2021/06/20 08:41:32;;;;;;;1.20;0.70;;;26.50;99.90;;;;;;5009543;28;20026;-71
2021/06/20 08:43:58;;;;;;;0.80;0.68;;;26.00;99.90;;;;;;5015102;28;20026;-71
2021/06/20 08:46:24;;;;;;;0.52;0.40;;;26.20;99.90;;;;;;5012447;28;20046;-72
2021/06/20 08:48:51;;;;;;;0.93;0.85;;;25.80;99.90;;;;;;5006273;28;20097;-71
2021/06/20 08:51:16;;;;;;;1.02;0.80;;;25.10;99.90;;;;;;5005544;28;20061;-71
2021/06/20 08:53:43;;;;;;;2.00;1.00;;;24.40;99.90;;;;;;5008706;28;20076;-70
2021/06/20 08:56:09;;;;;;;1.13;0.93;;;24.00;99.90;;;;;;5007852;28;20091;-71
2021/06/20 08:58:35;;;;;;;1.63;0.95;;;23.60;99.90;;;;;;5007679;28;20038;-77
2021/06/20 09:01:03;;;;;;;1.25;1.00;;;23.20;99.90;;;;;;5005471;28;20586;-70
2021/06/20 09:03:44;;;;;;;0.75;0.70;;;23.30;99.90;;;;;;5002309;28;20582;-72
2021/06/20 09:06:21;;;;;;;1.17;0.80;;;23.20;99.90;;;;;;5006016;28;20111;-71
2021/06/20 09:08:51;;;;;;;2.95;1.20;;;23.00;99.90;;;;;;5002515;28;20662;-71
2021/06/20 09:11:27;;;;;;;1.65;1.55;;;22.80;99.90;;;;;;5000847;28;20533;-71
2021/06/20 09:14:07;;;;;;;2.40;1.77;;;22.80;99.90;;;;;;5003561;28;20022;-71
2021/06/20 09:16:34;;;;;;;2.67;1.75;;;22.70;99.90;;;;;;4997286;28;20046;-71
2021/06/20 09:19:00;;;;;;;2.95;2.10;;;22.60;99.90;;;;;;5002856;28;20058;-71
2021/06/20 09:21:26;;;;;;;3.08;2.08;;;22.50;99.90;;;;;;5003803;28;20072;-71
2021/06/20 09:23:57;;;;;;;4.03;2.55;;;22.10;99.90;;;;;;5007029;28;20058;-70
2021/06/20 09:26:38;;;;;;;3.80;2.67;;;22.00;99.90;;;;;;5005422;28;20069;-71
2021/06/20 09:29:06;;;;;;;3.70;2.10;;;22.10;99.90;;;;;;5003128;28;20030;-71
2021/06/20 09:31:50;;;;;;;4.22;2.25;;;22.70;99.90;;;;;;5005847;28;20038;-71
2021/06/20 09:34:16;;;;;;;6.38;1.80;;;23.10;99.90;;;;;;5001767;28;20120;-71
2021/06/20 09:36:44;;;;;;;3.03;1.92;;;23.10;99.90;;;;;;5005249;28;20458;-72
2021/06/20 09:39:23;;;;;;;2.92;1.98;;;23.20;99.90;;;;;;5006123;28;20475;-71
2021/06/20 09:42:09;;;;;;;4.47;2.05;;;23.20;99.90;;;;;;5007356;28;20030;-71
2021/06/20 09:44:45;;;;;;;4.28;2.28;;;23.20;99.90;;;;;;5003777;28;20038;-71
2021/06/20 09:47:14;;;;;;;4.13;2.60;;;23.20;99.90;;;;;;5004304;28;20061;-71
2021/06/20 09:49:40;;;;;;;3.47;2.55;;;23.00;99.90;;;;;;5006058;28;20045;-71
2021/06/20 09:52:07;;;;;;;2.50;1.95;;;22.80;99.90;;;;;;5005017;28;20949;-70
2021/06/20 09:54:46;;;;;;;6.15;1.77;;;23.00;99.90;;;;;;5004502;28;20030;-71
2021/06/20 09:57:16;;;;;;;2.38;1.55;;;23.60;99.90;;;;;;5006497;28;20038;-71
2021/06/20 09:59:42;;;;;;;2.30;1.13;;;24.00;99.90;;;;;;5003486;28;20128;-71
2021/06/20 10:02:13;;;;;;;2.13;1.00;;;24.50;99.90;;;;;;5004951;28;20654;-71
2021/06/20 10:04:41;;;;;;;3.33;1.55;;;24.80;99.90;;;;;;5003196;28;20044;-71
2021/06/20 10:07:09;;;;;;;4.10;1.50;;;24.90;99.90;;;;;;5002296;28;20034;-71
2021/06/20 10:09:36;;;;;;;1.05;0.82;;;24.70;99.90;;;;;;5000673;28;20042;-71
2021/06/20 10:12:05;;;;;;;1.30;0.82;;;24.50;99.90;;;;;;5002619;28;20525;-71
2021/06/20 10:14:31;;;;;;;1.63;0.80;;;24.40;99.90;;;;;;5003825;28;20026;-71
2021/06/20 10:17:09;;;;;;;1.70;0.93;;;24.30;99.90;;;;;;5002047;28;20034;-71
2021/06/20 10:19:40;;;;;;;2.33;1.63;;;24.20;99.90;;;;;;5000816;28;20037;-71
2021/06/20 10:22:11;;;;;;;1.50;1.00;;;24.00;99.90;;;;;;5004634;28;20059;-71
2021/06/20 10:24:48;;;;;;;2.13;1.17;;;24.00;99.90;;;;;;5002891;28;20041;-71
2021/06/20 10:27:33;;;;;;;12.85;1.10;;;23.80;99.90;;;;;;5004505;28;20409;-71
2021/06/20 10:30:01;;;;;;;1.95;0.80;;;23.90;99.90;;;;;;5000044;28;20022;-71
2021/06/20 10:32:38;;;;;;;2.97;1.17;;;23.80;99.90;;;;;;5006728;28;20065;-71
2021/06/20 10:35:08;;;;;;;2.78;1.60;;;23.70;99.90;;;;;;5001172;28;20045;-71
2021/06/20 10:37:38;;;;;;;4.75;2.28;;;23.50;99.90;;;;;;5004091;28;20065;-71
2021/06/20 10:40:22;;;;;;;4.57;2.42;;;23.30;99.90;;;;;;5001934;28;20104;-71
2021/06/20 10:42:50;;;;;;;4.65;2.60;;;23.10;99.90;;;;;;5004502;28;20113;-71
2021/06/20 10:45:33;;;;;;;8.98;2.75;;;23.10;99.90;;;;;;5006529;28;20045;-71
2021/06/20 10:48:20;;;;;;;7.60;3.42;;;23.10;99.90;;;;;;4999288;28;20056;-71
2021/06/20 10:50:49;;;;;;;5.85;3.33;;;23.00;99.90;;;;;;5002956;28;20394;-71
2021/06/20 10:53:15;;;;;;;8.23;4.00;;;23.10;99.90;;;;;;5005647;28;20095;-71
2021/06/20 10:55:59;;;;;;;11.52;4.82;;;23.20;99.90;;;;;;5012696;28;20382;-71
2021/06/20 10:58:34;;;;;;;7.28;4.10;;;23.50;99.90;;;;;;5004665;28;20386;-70
2021/06/20 11:01:14;;;;;;;7.60;4.28;;;23.90;99.90;;;;;;5000991;28;20364;-71
2021/06/20 11:03:41;;;;;;;13.20;5.50;;;23.90;99.90;;;;;;5005451;28;20033;-71
2021/06/20 11:06:07;;;;;;;10.85;4.68;;;24.00;99.90;;;;;;5000141;28;20026;-71
2021/06/20 11:08:39;;;;;;;9.15;4.90;;;24.00;99.90;;;;;;5000872;28;20042;-71
2021/06/20 11:11:05;;;;;;;6.10;3.85;;;23.80;99.90;;;;;;5001927;28;20038;-71
2021/06/20 11:13:30;;;;;;;3.53;2.08;;;23.80;99.90;;;;;;5001676;28;20123;-71
2021/06/20 11:16:14;;;;;;;1.63;0.70;;;23.70;99.90;;;;;;5001853;28;20117;-71
2021/06/20 11:18:41;;;;;;;2.47;0.70;;;23.80;99.90;;;;;;4999969;28;20041;-71
2021/06/20 11:21:07;;;;;;;1.05;0.52;;;23.80;99.90;;;;;;5000691;28;20517;-71
2021/06/20 11:23:33;;;;;;;2.35;0.70;;;23.80;99.90;;;;;;5000420;28;20033;-71
2021/06/20 11:26:00;;;;;;;2.45;0.52;;;23.60;99.90;;;;;;5004508;28;20126;-71
2021/06/20 11:28:27;;;;;;;3.80;0.80;;;23.40;99.90;;;;;;5003559;28;20041;-71
2021/06/20 11:31:10;;;;;;;3.58;0.90;;;23.30;99.90;;;;;;5006346;28;20041;-71
2021/06/20 11:33:38;;;;;;;1.98;0.85;;;23.60;99.90;;;;;;5007324;28;20030;-71
2021/06/20 11:36:04;;;;;;;1.83;0.90;;;23.70;99.90;;;;;;5005133;28;20030;-71
2021/06/20 11:38:39;;;;;;;2.22;0.80;;;23.80;99.90;;;;;;5005374;28;20026;-71
2021/06/20 11:41:09;;;;;;;2.78;0.80;;;23.80;99.90;;;;;;4993334;28;20084;-71
2021/06/20 11:43:38;;;;;;;4.45;0.90;;;23.70;99.90;;;;;;5007609;28;20390;-71
2021/06/20 11:46:15;;;;;;;2.88;1.00;;;23.70;99.90;;;;;;5007367;28;20347;-71
2021/06/20 11:49:10;;;;;;;2.80;0.88;;;23.60;99.90;;;;;;5009973;28;20110;-71
2021/06/20 11:51:42;;;;;;;2.53;0.80;;;23.70;99.90;;;;;;5005039;28;20038;-72
2021/06/20 11:54:16;;;;;;;2.80;0.70;;;23.80;99.90;;;;;;5004006;28;20567;-73
2021/06/20 11:56:45;;;;;;;6.45;0.70;;;24.00;99.90;;;;;;5005435;28;20033;-73
2021/06/20 11:59:11;;;;;;;3.67;0.80;;;24.30;99.90;;;;;;5008030;28;20033;-73
2021/06/20 12:01:42;;;;;;;3.72;0.70;;;24.50;99.90;;;;;;5008178;28;20125;-72
2021/06/20 12:04:09;;;;;;;1.63;0.60;;;24.70;99.90;;;;;;5009068;28;20041;-72
2021/06/20 12:06:36;;;;;;;1.83;0.60;;;24.90;99.90;;;;;;5008286;28;20546;-72
2021/06/20 12:09:02;;;;;;;2.30;0.75;;;25.00;99.90;;;;;;5005150;28;20033;-73
2021/06/20 12:11:31;;;;;;;4.00;0.77;;;24.90;99.90;;;;;;5008764;28;20042;-73
2021/06/20 12:13:57;;;;;;;2.70;0.88;;;24.90;99.90;;;;;;5008096;28;20033;-72
2021/06/20 12:16:22;;;;;;;2.22;0.93;;;24.80;99.90;;;;;;5009627;28;20038;-72
2021/06/20 12:18:48;;;;;;;1.35;0.60;;;24.70;99.90;;;;;;5005041;28;20106;-72
2021/06/20 12:21:30;;;;;;;3.78;1.40;;;24.50;99.90;;;;;;5008303;28;20406;-72
2021/06/20 12:23:58;;;;;;;1.73;0.80;;;24.50;99.90;;;;;;5006034;28;20041;-72
2021/06/20 12:26:31;;;;;;;2.28;0.70;;;24.30;99.90;;;;;;5006590;28;20084;-72
2021/06/20 12:28:58;;;;;;;3.63;0.90;;;24.20;99.90;;;;;;5006784;28;20494;-73
2021/06/20 12:31:25;;;;;;;1.50;0.70;;;24.30;99.90;;;;;;5006607;28;20038;-72
2021/06/20 12:34:06;;;;;;;6.07;1.65;;;24.40;99.90;;;;;;5008938;28;20038;-72
2021/06/20 12:36:33;;;;;;;5.25;1.52;;;24.50;99.90;;;;;;5003961;28;20026;-73
2021/06/20 12:39:00;;;;;;;5.03;1.10;;;24.60;99.90;;;;;;5008406;28;20030;-72
2021/06/20 12:41:27;;;;;;;2.58;1.20;;;24.70;99.90;;;;;;5002242;28;20026;-72
2021/06/20 12:44:04;;;;;;;1.85;0.70;;;24.70;99.90;;;;;;5007183;28;20080;-73
2021/06/20 12:46:38;;;;;;;2.40;0.77;;;24.60;99.90;;;;;;5005876;28;20072;-72
2021/06/20 12:49:09;;;;;;;1.13;0.60;;;24.70;99.90;;;;;;5006149;28;20084;-72